createdAt,value
2023-05-03T00:03:23.895Z,101503.80
2023-05-03T00:08:26.599Z,101499.80
2023-05-03T00:13:29.166Z,101501.00
2023-05-03T00:18:32.081Z,101506.80
2023-05-03T00:23:34.669Z,101502.20
2023-05-03T00:28:37.280Z,101511.80
2023-05-03T00:33:40.799Z,101518.00
2023-05-03T00:38:43.544Z,101514.40
2023-05-03T00:43:46.194Z,101510.60
2023-05-03T00:48:49.588Z,101515.60
2023-05-03T00:53:52.227Z,101508.40
2023-05-03T00:58:55.499Z,101514.60
2023-05-03T01:04:01.255Z,101519.40
2023-05-03T01:09:43.780Z,101519.80
2023-05-03T01:15:01.888Z,101516.60
2023-05-03T01:20:11.737Z,101514.40
2023-05-03T01:25:16.464Z,101516.00
2023-05-03T01:30:25.238Z,101523.00
2023-05-03T01:35:42.434Z,101514.80
2023-05-03T01:40:55.640Z,101521.00
2023-05-03T01:45:59.525Z,101525.40
2023-05-03T01:51:02.193Z,101525.00
2023-05-03T01:56:05.951Z,101540.00
2023-05-03T02:01:09.636Z,101535.20
2023-05-03T02:06:12.394Z,101537.00
2023-05-03T02:11:15.265Z,101535.20
2023-05-03T02:16:18.745Z,101534.20
2023-05-03T02:21:21.358Z,101533.20
2023-05-03T02:26:23.920Z,101534.80
2023-05-03T02:31:27.127Z,101534.40
2023-05-03T02:36:32.099Z,101534.20
2023-05-03T02:41:34.992Z,101535.00
2023-05-03T02:46:37.589Z,101548.80
2023-05-03T02:51:40.285Z,101549.80
2023-05-03T02:56:42.819Z,101548.80
2023-05-03T03:01:47.045Z,101547.20
2023-05-03T03:06:49.689Z,101551.20
2023-05-03T03:11:53.412Z,101549.40
2023-05-03T03:16:58.602Z,101537.00
2023-05-03T03:22:01.144Z,101536.60
2023-05-03T03:27:03.780Z,101532.80
2023-05-03T03:32:07.218Z,101534.60
2023-05-03T03:37:10.097Z,101517.60
2023-05-03T03:42:15.593Z,101511.80
2023-05-03T03:47:18.331Z,101508.20
2023-05-03T03:52:21.291Z,101505.00
2023-05-03T03:57:25.217Z,101504.20
2023-05-03T04:02:28.058Z,101501.60
2023-05-03T04:07:31.000Z,101496.20
2023-05-03T04:12:34.095Z,101498.00
2023-05-03T04:17:36.764Z,101495.00
2023-05-03T04:22:40.500Z,101489.00
2023-05-03T04:27:45.011Z,101487.60
2023-05-03T04:32:47.693Z,101483.80
2023-05-03T04:37:50.316Z,101477.20
2023-05-03T04:42:52.931Z,101473.00
2023-05-03T04:47:55.717Z,101473.60
2023-05-03T04:52:59.353Z,101480.80
2023-05-03T04:58:02.117Z,101478.20
2023-05-03T05:03:06.373Z,101481.80
2023-05-03T05:08:09.117Z,101478.80
2023-05-03T05:13:11.935Z,101481.80
2023-05-03T05:18:14.543Z,101482.80
2023-05-03T05:23:17.153Z,101483.40
2023-05-03T05:28:19.751Z,101484.60
2023-05-03T05:33:22.807Z,101482.00
2023-05-03T05:38:25.608Z,101488.00
2023-05-03T05:43:28.655Z,101490.00
2023-05-03T05:48:31.258Z,101493.40
2023-05-03T05:53:33.822Z,101505.80
2023-05-03T05:58:37.546Z,101508.20
2023-05-03T06:03:40.323Z,101508.20
2023-05-03T06:08:42.873Z,101512.00
2023-05-03T06:13:45.670Z,101515.60
2023-05-03T06:18:48.214Z,101523.40
2023-05-03T06:23:50.811Z,101532.20
2023-05-03T06:28:53.429Z,101537.40
2023-05-03T06:33:56.348Z,101544.60
2023-05-03T06:38:58.965Z,101545.00
2023-05-03T06:44:01.528Z,101552.80
2023-05-03T06:49:04.323Z,101544.00
2023-05-03T06:54:09.321Z,101546.60
2023-05-03T06:59:12.257Z,101546.20
2023-05-03T07:04:14.993Z,101551.20
2023-05-03T07:09:21.978Z,101558.00
2023-05-03T07:14:28.859Z,101561.60
2023-05-03T07:19:32.105Z,101563.60
2023-05-03T07:24:34.735Z,101563.20
2023-05-03T07:29:37.385Z,101569.40
2023-05-03T07:34:40.084Z,101572.20
2023-05-03T07:39:42.688Z,101570.40
2023-05-03T07:44:45.320Z,101573.40
2023-05-03T07:49:50.741Z,101579.80
2023-05-03T07:54:53.570Z,101583.00
2023-05-03T07:59:56.535Z,101583.20
2023-05-03T08:04:59.559Z,101583.00
2023-05-03T08:10:03.212Z,101581.40
2023-05-03T08:15:07.562Z,101581.20
2023-05-03T08:20:11.922Z,101590.80
2023-05-03T08:25:17.697Z,101584.00
2023-05-03T08:30:22.100Z,101592.80
2023-05-03T08:35:25.373Z,101597.60
2023-05-03T08:40:29.202Z,101608.60
2023-05-03T08:45:33.564Z,101610.00
2023-05-03T08:50:42.232Z,101609.00
2023-05-03T08:55:45.704Z,101624.60
2023-05-03T09:00:48.396Z,101618.20
2023-05-03T09:05:50.965Z,101628.40
2023-05-03T09:10:54.053Z,101634.20
2023-05-03T09:15:58.003Z,101645.00
2023-05-03T09:21:00.759Z,101644.80
2023-05-03T09:26:03.811Z,101647.80
2023-05-03T09:31:07.772Z,101648.60
2023-05-03T09:36:11.508Z,101654.00
2023-05-03T09:41:15.720Z,101657.00
2023-05-03T09:46:19.397Z,101659.60
2023-05-03T09:51:23.759Z,101664.80
2023-05-03T09:56:26.789Z,101656.20
2023-05-03T10:01:31.541Z,101658.60
2023-05-03T10:06:44.289Z,101651.80
2023-05-03T10:11:59.021Z,101651.80
2023-05-03T10:17:43.679Z,101652.80
2023-05-03T10:23:05.736Z,101656.60
2023-05-03T10:28:09.823Z,101675.80
2023-05-03T10:33:12.565Z,101678.80
2023-05-03T10:38:17.299Z,101675.80
2023-05-03T10:43:29.520Z,101676.00
2023-05-03T10:48:33.745Z,101683.80
2023-05-03T10:53:42.659Z,101675.80
2023-05-03T10:58:51.158Z,101679.80
2023-05-03T11:04:34.637Z,101688.00
2023-05-03T11:09:37.435Z,101687.20
2023-05-03T11:14:42.394Z,101684.60
2023-05-03T11:19:45.195Z,101687.60
2023-05-03T11:24:47.867Z,101689.80
2023-05-03T11:29:51.062Z,101691.80
2023-05-03T11:34:54.052Z,101701.00
2023-05-03T11:39:56.645Z,101703.00
2023-05-03T11:45:01.835Z,101704.80
2023-05-03T11:50:05.618Z,101700.80
2023-05-03T11:55:10.825Z,101695.40
2023-05-03T12:00:20.264Z,101684.40
2023-05-03T12:05:23.503Z,101685.20
2023-05-03T12:10:33.614Z,101694.60
2023-05-03T12:15:40.493Z,101700.40
2023-05-03T12:21:29.131Z,101701.40
2023-05-03T12:26:08.248Z,101708.00
2023-05-03T12:31:13.144Z,101707.60
2023-05-03T12:36:16.718Z,101709.60
2023-05-03T12:41:52.015Z,101708.20
2023-05-03T12:46:44.889Z,101703.60
2023-05-03T12:51:55.447Z,101705.40
2023-05-03T12:57:08.948Z,101701.60
2023-05-03T13:07:27.181Z,101707.60
2023-05-03T13:12:33.750Z,101709.60
2023-05-03T13:17:36.840Z,101701.80
2023-05-03T13:22:39.576Z,101698.40
2023-05-03T13:27:42.162Z,101701.80
2023-05-03T13:32:44.737Z,101699.40
2023-05-03T13:37:47.436Z,101693.20
2023-05-03T13:42:50.003Z,101691.00
2023-05-03T13:48:12.103Z,101689.60
2023-05-03T13:53:15.325Z,101685.80
2023-05-03T13:58:17.940Z,101675.20
2023-05-03T14:03:20.737Z,101674.00
2023-05-03T14:08:23.510Z,101672.20
2023-05-03T14:13:29.678Z,101673.20
2023-05-03T14:18:35.738Z,101666.00
2023-05-03T14:23:39.553Z,101673.60
2023-05-03T14:28:42.225Z,101684.00
2023-05-03T14:33:44.937Z,101686.60
2023-05-03T14:38:47.768Z,101687.20
2023-05-03T14:43:50.465Z,101686.20
2023-05-03T14:48:53.152Z,101688.80
2023-05-03T14:53:55.831Z,101688.20
2023-05-03T14:59:00.374Z,101687.60
2023-05-03T15:04:04.320Z,101691.80
2023-05-03T15:09:08.683Z,101687.40
2023-05-03T15:14:11.631Z,101700.20
2023-05-03T15:19:14.341Z,101697.80
2023-05-03T15:24:18.078Z,101693.40
2023-05-03T15:29:21.696Z,101693.20
2023-05-03T15:34:24.452Z,101699.60
2023-05-03T15:39:27.014Z,101704.00
2023-05-03T15:44:29.541Z,101705.80
2023-05-03T15:49:32.070Z,101700.80
2023-05-03T15:54:34.606Z,101703.40
2023-05-03T15:59:37.438Z,101700.00
2023-05-03T16:04:40.369Z,101699.00
2023-05-03T16:09:44.502Z,101701.20
2023-05-03T16:14:47.327Z,101699.60
2023-05-03T16:19:49.938Z,101702.20
2023-05-03T16:24:55.923Z,101704.80
2023-05-03T16:29:58.515Z,101706.80
2023-05-03T16:35:04.436Z,101706.80
2023-05-03T16:40:11.584Z,101707.20
2023-05-03T16:45:16.885Z,101706.20
2023-05-03T16:50:20.224Z,101712.40
2023-05-03T16:55:23.253Z,101717.00
2023-05-03T17:00:25.868Z,101711.20
2023-05-03T17:05:33.275Z,101709.20
2023-05-03T17:10:39.219Z,101709.80
2023-05-03T17:15:41.935Z,101717.80
2023-05-03T17:20:44.521Z,101715.40
2023-05-03T17:25:48.423Z,101716.40
2023-05-03T17:30:51.136Z,101719.60
2023-05-03T17:36:00.650Z,101720.60
2023-05-03T17:41:07.911Z,101725.00
2023-05-03T17:46:14.233Z,101728.60
2023-05-03T17:51:17.008Z,101731.00
2023-05-03T17:56:19.671Z,101727.00
2023-05-03T18:01:22.333Z,101729.00
2023-05-03T18:06:25.311Z,101734.40
2023-05-03T18:11:27.890Z,101741.60
2023-05-03T18:16:30.516Z,101746.60
2023-05-03T18:21:35.433Z,101752.40
2023-05-03T18:26:38.338Z,101755.40
2023-05-03T18:31:41.681Z,101764.40
2023-05-03T18:36:44.356Z,101768.80
2023-05-03T18:41:46.965Z,101773.60
2023-05-03T18:46:49.639Z,101777.60
2023-05-03T18:51:52.346Z,101778.80
2023-05-03T18:56:55.475Z,101787.40
2023-05-03T19:01:58.084Z,101793.00
2023-05-03T19:07:00.997Z,101792.60
2023-05-03T19:12:04.333Z,101790.00
2023-05-03T19:17:08.382Z,101793.40
2023-05-03T19:22:11.584Z,101793.20
2023-05-03T19:27:14.161Z,101797.20
2023-05-03T19:32:16.688Z,101806.40
2023-05-03T19:37:19.497Z,101800.60
2023-05-03T19:42:22.065Z,101804.00
2023-05-03T19:47:24.734Z,101804.60
2023-05-03T19:52:27.328Z,101804.80
2023-05-03T19:57:29.928Z,101800.40
2023-05-03T20:02:36.499Z,101798.20
2023-05-03T20:07:39.486Z,101808.80
2023-05-03T20:12:42.201Z,101813.00
2023-05-03T20:17:44.926Z,101819.00
2023-05-03T20:22:50.947Z,101813.00
2023-05-03T20:27:53.498Z,101815.40
2023-05-03T20:32:56.131Z,101813.80
2023-05-03T20:37:58.965Z,101820.00
2023-05-03T20:43:02.014Z,101821.20
2023-05-03T20:48:05.586Z,101820.60
2023-05-03T20:53:08.364Z,101823.80
2023-05-03T20:58:12.252Z,101819.40
2023-05-03T21:03:15.496Z,101818.80
2023-05-03T21:08:18.649Z,101818.60
2023-05-03T21:13:21.331Z,101812.80
2023-05-03T21:18:24.999Z,101817.60
2023-05-03T21:23:27.656Z,101824.20
2023-05-03T21:28:32.229Z,101832.20
2023-05-03T21:33:34.918Z,101824.00
2023-05-03T21:38:37.886Z,101830.40
2023-05-03T21:43:40.415Z,101824.80
2023-05-03T21:48:43.632Z,101826.60
2023-05-03T21:53:46.162Z,101827.00
2023-05-03T21:58:48.728Z,101833.80
2023-05-03T22:03:51.807Z,101832.80
2023-05-03T22:08:54.921Z,101835.80
2023-05-03T22:14:07.419Z,101833.40
2023-05-03T22:19:11.975Z,101830.00
2023-05-03T22:24:14.534Z,101828.20
2023-05-03T22:29:17.675Z,101828.00
2023-05-03T22:34:20.350Z,101831.40
2023-05-03T22:39:23.829Z,101824.80
2023-05-03T22:44:26.960Z,101832.00
2023-05-03T22:49:29.862Z,101835.40
2023-05-03T22:54:32.451Z,101828.80
2023-05-03T22:59:34.984Z,101824.20
2023-05-03T23:04:37.564Z,101824.20
2023-05-03T23:09:40.202Z,101816.20
2023-05-03T23:14:45.743Z,101814.80
2023-05-03T23:19:48.405Z,101811.40
2023-05-03T23:24:51.048Z,101812.00
2023-05-03T23:29:53.890Z,101814.00
2023-05-03T23:34:57.822Z,101813.60
2023-05-03T23:40:00.376Z,101812.80
2023-05-03T23:45:03.345Z,101813.20
2023-05-03T23:50:07.665Z,101805.20
2023-05-03T23:55:10.946Z,101809.00
